Terminal Aerodrome Forecast
Issued by NWS

Home | Current Version | Previous Version | Text Only | Print | Product List | Glossary On
Versions: 1 2 3 4 5 6 7 8 9 10 11 12 13 14 15 16 17 18 19 20 21 22 23 24 25 26
000
FTUS44 KBMX 041128
TAFEET
TAF
KEET 041128Z 0412/0512 19004KT P6SM VCTS OVC007CB
     FM041300 15008KT 4SM -TSRA SCT025CB BKN050
      TEMPO 0414/0416 21010G18KT 2SM TSRA SCT025CB BKN035
     FM041900 24010KT 4SM SHRA VCTS OVC050CB
     FM050500 23003KT 6SM BR VCTS SCT015CB OVC025=

USA.gov is the U.S. government's official web portal to all federal, state and local government web resources and services.